Time;durP1;ratioP1;P1;durP2;ratioP2;P2;SDS_P1;SDS_P2;PMS_P1;PMS_P2;Temp;Humidity;BMP_temperature;BMP_pressure;BME280_temperature;BME280_humidity;BME280_pressure;Samples;Min_cycle;Max_cycle;Signal;HPM_P1;HPM_P2
2022/02/10 00:07:34;;;;;;;11.60;6.50;;;8.30;1.00;;;;;;5053767;28;20719;-61
2022/02/10 00:18:29;;;;;;;11.20;6.77;;;8.30;1.00;;;;;;5053328;28;20198;-62
2022/02/10 00:20:59;;;;;;;18.00;7.83;;;8.30;1.00;;;;;;5053440;28;20200;-61
2022/02/10 00:23:40;;;;;;;12.43;6.97;;;8.20;1.00;;;;;;5053530;28;20228;-60
2022/02/10 00:34:28;;;;;;;14.23;8.60;;;8.00;1.00;;;;;;5054049;28;20240;-62
2022/02/10 00:37:09;;;;;;;14.37;7.90;;;7.90;1.00;;;;;;5053142;28;20213;-61
2022/02/10 00:42:19;;;;;;;15.00;8.20;;;7.90;1.00;;;;;;5043459;28;20221;-62
2022/02/10 00:44:46;;;;;;;15.13;8.70;;;7.90;1.00;;;;;;5059742;28;20203;-62
2022/02/10 00:47:14;;;;;;;13.50;8.10;;;7.80;1.00;;;;;;5052620;28;20601;-62
2022/02/10 00:49:42;;;;;;;12.43;7.07;;;7.80;1.00;;;;;;5052196;28;20207;-62
2022/02/10 00:52:08;;;;;;;13.53;8.10;;;7.90;1.00;;;;;;5052207;28;20325;-62
2022/02/10 00:54:37;;;;;;;13.50;8.23;;;7.90;1.00;;;;;;5052577;28;20210;-61
2022/02/10 00:57:07;;;;;;;18.83;8.10;;;7.80;1.00;;;;;;5052562;28;20210;-61
2022/02/10 00:59:44;;;;;;;13.63;8.00;;;7.80;1.00;;;;;;5052775;28;20581;-60
2022/02/10 01:06:56;;;;;;;15.77;8.40;;;7.70;1.00;;;;;;5052433;28;20210;-62
2022/02/10 01:10:57;;;;;;;16.20;8.40;;;7.70;1.00;;;;;;5052600;28;20600;-63
2022/02/10 01:13:44;;;;;;;17.47;8.43;;;7.90;1.00;;;;;;5052369;28;20317;-62
2022/02/10 01:24:35;;;;;;;17.73;7.60;;;7.70;1.00;;;;;;5052369;28;20661;-62
2022/02/10 01:29:47;;;;;;;16.27;8.37;;;7.70;1.00;;;;;;5052582;28;20205;-62
2022/02/10 01:32:16;;;;;;;15.20;9.20;;;7.60;1.00;;;;;;5052117;28;20234;-61
2022/02/10 01:34:45;;;;;;;18.73;9.90;;;7.50;1.00;;;;;;5052187;28;20205;-60
2022/02/10 01:37:13;;;;;;;18.10;9.30;;;7.50;1.80;;;;;;5052030;28;20623;-61
2022/02/10 01:39:45;;;;;;;15.37;9.20;;;7.60;21.70;;;;;;5051752;28;20209;-63
2022/02/10 01:43:01;;;;;;;14.53;8.97;;;7.60;20.00;;;;;;5052084;28;20293;-62
2022/02/10 02:04:30;;;;;;;17.63;10.07;;;7.40;47.40;;;;;;5051495;28;20286;-63
2022/02/10 02:06:57;;;;;;;17.30;9.47;;;7.40;53.80;;;;;;5051602;28;20209;-62
2022/02/10 02:09:25;;;;;;;18.57;10.73;;;7.40;60.70;;;;;;5051810;28;20274;-63
2022/02/10 02:11:54;;;;;;;18.13;9.80;;;7.50;69.20;;;;;;5051145;28;20310;-62
2022/02/10 02:14:23;;;;;;;21.10;10.27;;;7.50;65.00;;;;;;5051554;28;20230;-63
2022/02/10 02:16:52;;;;;;;15.97;9.80;;;7.40;45.50;;;;;;5051631;28;20668;-61
2022/02/10 02:19:19;;;;;;;21.33;10.37;;;7.30;19.40;;;;;;5051673;28;20263;-62
2022/02/10 02:21:46;;;;;;;20.27;11.33;;;7.20;24.70;;;;;;5051332;28;20215;-62
2022/02/10 02:24:20;;;;;;;18.90;11.13;;;7.10;29.40;;;;;;5051363;28;20717;-62
2022/02/10 02:26:47;;;;;;;21.93;10.63;;;7.10;42.20;;;;;;5051225;28;20292;-63
2022/02/10 02:29:17;;;;;;;19.17;11.30;;;7.00;59.60;;;;;;5051476;28;20201;-62
2022/02/10 02:31:48;;;;;;;20.67;11.83;;;6.90;69.60;;;;;;5051458;28;20575;-62
2022/02/10 02:40:37;;;;;;;17.63;11.57;;;6.80;99.90;;;;;;5044075;28;20201;-63
2022/02/10 03:05:14;;;;;;;18.97;10.83;;;6.60;99.90;;;;;;5050975;28;20736;-63
2022/02/10 03:07:47;;;;;;;19.90;10.00;;;6.60;99.90;;;;;;5051149;28;20561;-63
2022/02/10 03:10:39;;;;;;;15.93;9.37;;;6.60;99.90;;;;;;5051280;28;20221;-62
2022/02/10 03:13:11;;;;;;;17.00;9.83;;;6.60;99.90;;;;;;5051183;28;20237;-63
2022/02/10 03:15:47;;;;;;;15.73;9.27;;;6.60;99.90;;;;;;5051087;28;20221;-63
2022/02/10 03:18:22;;;;;;;14.40;9.33;;;6.50;99.90;;;;;;5054946;28;20224;-63
2022/02/10 03:21:14;;;;;;;15.53;9.23;;;6.50;99.90;;;;;;5054739;28;20237;-62
2022/02/10 04:02:28;;;;;;;13.93;9.07;;;6.10;99.90;;;;;;5053754;28;20714;-59
2022/02/10 04:05:13;;;;;;;15.03;8.73;;;6.10;99.90;;;;;;5053776;28;20698;-62
2022/02/10 04:07:54;;;;;;;16.77;9.37;;;6.00;99.90;;;;;;5053310;28;20267;-61
2022/02/10 04:13:10;;;;;;;14.73;9.13;;;6.00;99.90;;;;;;5049711;28;20715;-60
2022/02/10 04:15:44;;;;;;;18.40;10.57;;;6.10;99.90;;;;;;5053630;28;20209;-61
2022/02/10 04:18:41;;;;;;;14.03;8.80;;;6.10;99.90;;;;;;5053233;28;20651;-62
2022/02/10 04:21:23;;;;;;;21.07;9.47;;;6.00;99.90;;;;;;5053288;28;20206;-61
2022/02/10 04:24:10;;;;;;;18.77;9.97;;;5.90;99.90;;;;;;5053264;28;20222;-61
2022/02/10 04:26:44;;;;;;;17.43;9.23;;;5.90;99.90;;;;;;5053368;28;20205;-62
2022/02/10 04:29:34;;;;;;;16.40;9.93;;;5.80;99.90;;;;;;5053382;28;20253;-61
2022/02/10 04:38:12;;;;;;;19.70;10.47;;;5.60;99.90;;;;;;5052925;28;20208;-61
2022/02/10 04:43:46;;;;;;;17.50;10.70;;;5.50;99.90;;;;;;5053535;28;20224;-62
2022/02/10 04:55:08;;;;;;;20.90;11.97;;;5.40;99.90;;;;;;5052934;28;20193;-61
2022/02/10 04:57:48;;;;;;;20.93;10.23;;;5.30;99.90;;;;;;5052395;28;20201;-61
2022/02/10 05:00:29;;;;;;;19.80;11.87;;;5.30;99.90;;;;;;5052720;28;20212;-61
2022/02/10 05:06:22;;;;;;;17.27;11.23;;;5.50;99.90;;;;;;5052637;28;20200;-61
2022/02/10 05:17:38;;;;;;;19.60;12.47;;;5.60;99.90;;;;;;5052232;28;20205;-63
2022/02/10 05:23:18;;;;;;;20.10;11.90;;;5.60;99.90;;;;;;5089479;27;20622;-62
2022/02/10 05:33:56;;;;;;;21.63;11.83;;;5.70;99.90;;;;;;5088965;28;20732;-61
2022/02/10 05:36:26;;;;;;;20.57;11.50;;;5.60;99.90;;;;;;5089239;28;20208;-62
2022/02/10 05:39:04;;;;;;;19.77;11.17;;;5.50;99.90;;;;;;5088993;28;20574;-62
2022/02/10 05:52:55;;;;;;;14.47;9.17;;;5.60;99.90;;;;;;5088637;28;20222;-64
2022/02/10 05:55:40;;;;;;;12.60;8.60;;;5.60;99.90;;;;;;5088467;28;20212;-63
2022/02/10 05:58:13;;;;;;;19.90;9.40;;;5.60;99.90;;;;;;5088585;28;20287;-63
2022/02/10 06:48:03;;;;;;;19.03;7.47;;;5.70;99.90;;;;;;5057540;28;20282;-63
2022/02/10 06:53:26;;;;;;;16.47;6.87;;;5.70;99.90;;;;;;5073776;28;20722;-63
2022/02/10 07:15:37;;;;;;;10.73;6.80;;;5.70;99.90;;;;;;5073219;28;20276;-63
2022/02/10 07:54:34;;;;;;;11.70;7.90;;;6.20;99.90;;;;;;5068446;28;20258;-61
2022/02/10 07:57:15;;;;;;;14.10;8.17;;;6.20;99.90;;;;;;5068779;28;20204;-61
2022/02/10 08:57:57;;;;;;;15.97;7.83;;;6.60;99.90;;;;;;5013365;28;20205;-62
2022/02/10 09:03:18;;;;;;;15.53;9.20;;;6.90;99.90;;;;;;5032431;28;20282;-64
2022/02/10 09:05:56;;;;;;;16.47;9.33;;;6.80;99.90;;;;;;5054033;28;20265;-67
2022/02/10 09:17:06;;;;;;;19.17;9.77;;;6.90;99.90;;;;;;5053498;28;20232;-65
2022/02/10 09:20:06;;;;;;;17.63;9.37;;;6.70;99.90;;;;;;5053543;28;20201;-63
2022/02/10 09:55:59;;;;;;;14.10;8.67;;;6.90;99.90;;;;;;5053346;28;20196;-65
2022/02/10 09:58:45;;;;;;;14.77;9.57;;;7.00;99.90;;;;;;5052919;28;20252;-62
2022/02/10 10:01:27;;;;;;;17.20;10.47;;;7.10;99.90;;;;;;5052979;28;20213;-63
2022/02/10 10:03:58;;;;;;;17.80;9.97;;;7.20;99.90;;;;;;5052367;28;21014;-63
2022/02/10 10:06:45;;;;;;;18.87;10.93;;;7.10;99.90;;;;;;5052805;28;20248;-62
2022/02/10 10:09:32;;;;;;;15.50;10.23;;;7.00;99.90;;;;;;5051958;28;20205;-65
2022/02/10 10:15:13;;;;;;;14.47;10.23;;;7.10;99.90;;;;;;5034435;28;20228;-65
2022/02/10 10:18:06;;;;;;;15.83;11.10;;;6.90;99.90;;;;;;5052815;28;20279;-63
2022/02/10 10:20:45;;;;;;;18.97;11.43;;;7.00;99.90;;;;;;5052408;28;20596;-65
2022/02/10 10:23:24;;;;;;;16.67;10.57;;;7.10;99.90;;;;;;5052682;28;20229;-63
2022/02/10 10:51:05;;;;;;;22.07;14.23;;;6.60;99.90;;;;;;5053241;28;20204;-66
2022/02/10 10:53:40;;;;;;;18.93;12.73;;;6.70;99.90;;;;;;5053940;28;20236;-66
2022/02/10 10:56:11;;;;;;;22.13;13.57;;;6.70;99.90;;;;;;5052387;28;20201;-65
2022/02/10 10:58:44;;;;;;;25.30;13.83;;;6.70;99.90;;;;;;5052217;28;20220;-64
2022/02/10 11:38:17;;;;;;;17.73;14.10;;;6.70;99.90;;;;;;5088867;28;20199;-62
2022/02/10 11:41:36;;;;;;;21.27;13.97;;;6.70;99.90;;;;;;5088044;28;20671;-64
2022/02/10 13:23:33;;;;;;;12.60;8.70;;;7.40;99.90;;;;;;5060006;28;20651;-62
2022/02/10 14:13:20;;;;;;;13.97;8.57;;;7.80;99.90;;;;;;5072433;28;20719;-65
2022/02/10 14:16:02;;;;;;;12.07;7.97;;;7.80;99.90;;;;;;5074267;28;20208;-65
2022/02/10 14:18:31;;;;;;;11.17;7.27;;;7.80;99.90;;;;;;5071510;28;20289;-64
2022/02/10 14:29:08;;;;;;;10.50;7.03;;;7.90;99.90;;;;;;5072787;28;20292;-65
2022/02/10 14:31:35;;;;;;;11.27;8.43;;;7.90;99.90;;;;;;5071788;28;20264;-64
2022/02/10 14:34:02;;;;;;;14.07;9.07;;;7.90;99.90;;;;;;5071944;28;20238;-61
2022/02/10 14:36:38;;;;;;;13.87;8.27;;;7.90;99.90;;;;;;5070950;28;20209;-62
2022/02/10 14:39:28;;;;;;;12.50;7.43;;;8.00;99.90;;;;;;5072657;28;20243;-62
2022/02/10 15:30:04;;;;;;;15.23;8.20;;;7.40;99.90;;;;;;5089705;28;20184;-60
2022/02/10 15:46:35;;;;;;;14.97;9.40;;;7.30;99.90;;;;;;5088852;28;20251;-66
2022/02/10 15:52:07;;;;;;;12.83;7.80;;;7.40;99.90;;;;;;5052395;28;20243;-59
2022/02/10 16:10:58;;;;;;;13.77;7.83;;;7.30;99.90;;;;;;5054177;28;20241;-62
2022/02/10 16:14:35;;;;;;;14.83;8.40;;;7.30;99.90;;;;;;5088282;28;20274;-61
2022/02/10 16:19:30;;;;;;;12.40;7.67;;;7.10;99.90;;;;;;5051125;28;20223;-61
2022/02/10 16:22:02;;;;;;;13.43;6.77;;;7.10;99.90;;;;;;5087988;28;20218;-60
2022/02/10 16:24:31;;;;;;;14.83;8.17;;;7.00;99.90;;;;;;5088024;28;20300;-61
2022/02/10 16:27:10;;;;;;;15.07;8.00;;;7.00;99.90;;;;;;5087296;28;20212;-60
2022/02/10 16:29:38;;;;;;;12.63;8.13;;;7.00;99.90;;;;;;5087830;28;20691;-60
2022/02/10 16:32:06;;;;;;;12.73;8.63;;;7.00;99.90;;;;;;5087789;28;20287;-61
2022/02/10 16:34:33;;;;;;;15.27;8.63;;;7.00;99.90;;;;;;5076823;28;20232;-59
2022/02/10 16:37:00;;;;;;;12.53;8.83;;;7.00;99.90;;;;;;5074422;28;20205;-59
2022/02/10 16:39:27;;;;;;;13.03;8.80;;;7.00;99.90;;;;;;5075192;28;20205;-61
2022/02/10 16:41:53;;;;;;;14.13;8.77;;;7.00;99.90;;;;;;5077023;28;20309;-60
2022/02/10 16:44:20;;;;;;;14.53;8.73;;;6.90;99.90;;;;;;5074319;28;20220;-61
2022/02/10 16:46:48;;;;;;;13.47;9.00;;;6.90;99.90;;;;;;5074408;28;20201;-61
2022/02/10 16:49:17;;;;;;;15.77;9.50;;;6.80;99.90;;;;;;5074390;28;20208;-60
2022/02/10 16:51:45;;;;;;;16.73;9.37;;;6.80;99.90;;;;;;5074056;28;20205;-60
2022/02/10 16:54:19;;;;;;;16.70;10.17;;;6.70;99.90;;;;;;5073469;28;20231;-67
2022/02/10 16:56:58;;;;;;;18.80;9.20;;;6.60;99.90;;;;;;5073766;28;20208;-63
2022/02/10 16:59:35;;;;;;;19.23;9.70;;;6.60;99.90;;;;;;5073794;28;20266;-62
2022/02/10 17:02:23;;;;;;;16.40;9.63;;;6.60;99.90;;;;;;5073787;28;20232;-61
2022/02/10 17:05:18;;;;;;;17.07;8.60;;;6.60;99.90;;;;;;5073724;28;20263;-62
2022/02/10 17:25:05;;;;;;;21.23;11.67;;;6.60;99.90;;;;;;5062653;28;20219;-60
2022/02/10 17:27:06;;;;;;;18.97;11.23;;;6.60;99.90;;;;;;5072773;28;20208;-62
2022/02/10 17:29:44;;;;;;;19.10;11.43;;;6.60;99.90;;;;;;5073037;28;20304;-62
2022/02/10 17:32:19;;;;;;;18.37;11.73;;;6.60;99.90;;;;;;5073427;28;20211;-61
2022/02/10 17:35:19;;;;;;;19.53;11.47;;;6.60;99.90;;;;;;5073337;28;20277;-60
2022/02/10 17:46:18;;;;;;;19.43;11.27;;;6.70;99.90;;;;;;5071863;28;20262;-62
2022/02/10 17:51:45;;;;;;;18.70;11.47;;;6.70;99.90;;;;;;5072535;28;20204;-60
2022/02/10 17:54:13;;;;;;;19.27;11.93;;;6.70;99.90;;;;;;5072590;28;20722;-63
2022/02/10 17:56:40;;;;;;;20.43;12.47;;;6.70;99.90;;;;;;5073378;28;20244;-62
2022/02/10 17:59:08;;;;;;;20.40;11.97;;;6.70;99.90;;;;;;5075032;28;20209;-66
2022/02/10 18:01:35;;;;;;;17.27;10.53;;;6.70;99.90;;;;;;5072971;28;20205;-65
2022/02/10 18:04:02;;;;;;;16.47;9.93;;;6.60;99.90;;;;;;5072323;28;20230;-65
2022/02/10 18:06:35;;;;;;;20.13;11.00;;;6.60;99.90;;;;;;5071753;28;20782;-64
2022/02/10 18:09:21;;;;;;;13.83;7.53;;;6.50;99.90;;;;;;5072348;28;20205;-62
2022/02/10 18:14:35;;;;;;;5.20;3.30;;;5.90;99.90;;;;;;5072325;28;20323;-62
2022/02/10 18:17:10;;;;;;;4.57;2.73;;;5.50;99.90;;;;;;5071991;28;20208;-58
2022/02/10 18:19:41;;;;;;;4.13;3.03;;;5.30;99.90;;;;;;5072308;28;20260;-60
2022/02/10 18:22:32;;;;;;;4.63;2.40;;;5.30;99.90;;;;;;5072166;28;20306;-61
2022/02/10 18:25:11;;;;;;;2.60;1.97;;;5.30;99.90;;;;;;5072161;28;20208;-62
2022/02/10 18:27:43;;;;;;;4.87;2.63;;;5.00;99.90;;;;;;5072741;28;20208;-60
2022/02/10 18:30:18;;;;;;;3.83;2.37;;;5.00;99.90;;;;;;5072602;28;20211;-57
2022/02/10 19:06:27;;;;;;;6.73;3.83;;;5.10;99.90;;;;;;5071525;28;20204;-62
2022/02/10 19:09:10;;;;;;;6.57;4.17;;;5.10;99.90;;;;;;5071280;28;20238;-61
2022/02/10 19:11:45;;;;;;;6.10;4.40;;;5.10;99.90;;;;;;5071508;28;20220;-66
2022/02/10 19:14:16;;;;;;;10.87;4.37;;;5.20;99.90;;;;;;5071482;28;20228;-66
2022/02/10 19:16:43;;;;;;;5.43;3.43;;;5.20;99.90;;;;;;5071976;28;20212;-64
2022/02/10 19:19:13;;;;;;;7.07;4.10;;;5.20;99.90;;;;;;5071578;28;20207;-66
2022/02/10 19:21:40;;;;;;;6.50;4.20;;;5.50;99.90;;;;;;5071186;28;20304;-66
2022/02/10 19:24:07;;;;;;;7.50;4.73;;;5.80;99.90;;;;;;5071176;28;20703;-58
2022/02/10 19:26:34;;;;;;;8.27;4.20;;;6.00;99.90;;;;;;5070949;28;20211;-61
2022/02/10 19:29:02;;;;;;;8.30;4.13;;;5.80;99.90;;;;;;5071558;28;20212;-62
2022/02/10 19:31:32;;;;;;;6.63;4.10;;;5.70;99.90;;;;;;5071389;28;20211;-64
2022/02/10 19:33:59;;;;;;;5.00;2.93;;;5.50;99.90;;;;;;5071644;28;20327;-58
2022/02/10 19:36:27;;;;;;;4.87;2.70;;;5.20;97.60;;;;;;5070798;28;20216;-61
2022/02/10 19:38:54;;;;;;;4.23;2.97;;;5.00;99.90;;;;;;5071028;28;20207;-60
2022/02/10 19:41:21;;;;;;;7.80;3.10;;;4.90;99.90;;;;;;5071436;28;20539;-60
2022/02/10 19:43:48;;;;;;;4.37;2.77;;;4.80;99.90;;;;;;5070837;28;20229;-61
2022/02/10 19:46:16;;;;;;;5.83;2.80;;;4.80;99.90;;;;;;5070960;28;20208;-60
2022/02/10 19:48:43;;;;;;;4.80;2.80;;;4.80;99.90;;;;;;5070822;28;20214;-63
2022/02/10 19:51:09;;;;;;;4.10;2.87;;;4.60;99.90;;;;;;5070684;28;20207;-61
2022/02/10 19:53:36;;;;;;;6.40;2.50;;;4.60;99.90;;;;;;5071030;28;20231;-63
2022/02/10 19:56:03;;;;;;;4.37;2.00;;;4.60;99.90;;;;;;5070903;28;20214;-63
2022/02/10 19:58:31;;;;;;;5.67;2.43;;;4.50;99.90;;;;;;5071195;28;20588;-61
2022/02/10 20:01:00;;;;;;;2.57;1.80;;;4.40;99.90;;;;;;5071001;28;20319;-62
2022/02/10 20:03:31;;;;;;;3.97;2.10;;;4.30;99.90;;;;;;5071063;28;20229;-60
2022/02/10 20:05:59;;;;;;;4.73;1.70;;;4.30;99.90;;;;;;5070783;28;20660;-61
2022/02/10 20:08:26;;;;;;;3.23;2.10;;;4.10;99.90;;;;;;5071688;28;20207;-61
2022/02/10 20:10:55;;;;;;;5.97;1.83;;;4.00;99.90;;;;;;5074912;28;20679;-61
2022/02/10 20:13:22;;;;;;;6.33;2.17;;;3.90;99.90;;;;;;5074757;28;20231;-61
2022/02/10 20:15:50;;;;;;;3.27;2.63;;;3.90;99.90;;;;;;5074748;28;20220;-61
2022/02/10 20:18:17;;;;;;;3.17;2.20;;;3.90;99.90;;;;;;5074042;28;20256;-61
2022/02/10 20:20:49;;;;;;;5.10;2.00;;;3.90;99.90;;;;;;5074666;28;20274;-61
2022/02/10 20:23:17;;;;;;;4.97;2.67;;;4.00;99.90;;;;;;5074171;28;20669;-63
2022/02/10 20:25:44;;;;;;;4.67;2.80;;;4.00;99.90;;;;;;5065176;28;20261;-64
2022/02/10 20:28:12;;;;;;;4.47;2.37;;;4.00;99.90;;;;;;5074450;28;20668;-63
2022/02/10 20:30:40;;;;;;;3.30;2.60;;;3.90;99.90;;;;;;5074023;28;20202;-62
2022/02/10 20:33:07;;;;;;;4.43;2.53;;;3.90;99.90;;;;;;5073471;28;20230;-63
2022/02/10 20:35:36;;;;;;;5.40;3.40;;;4.00;99.90;;;;;;5074655;28;20205;-64
2022/02/10 20:38:04;;;;;;;6.17;3.90;;;3.90;99.90;;;;;;5069639;28;20345;-63
2022/02/10 20:40:35;;;;;;;9.00;2.83;;;3.90;99.90;;;;;;5053634;28;20672;-62
2022/02/10 20:43:06;;;;;;;6.47;3.33;;;3.80;99.90;;;;;;5054196;28;20253;-65
2022/02/10 20:45:34;;;;;;;3.83;2.60;;;3.80;99.90;;;;;;5053713;28;20652;-63
2022/02/10 20:48:01;;;;;;;3.70;2.00;;;3.80;99.90;;;;;;5054106;28;20213;-63
2022/02/10 20:50:28;;;;;;;2.87;1.60;;;3.60;99.90;;;;;;5053672;28;20202;-60
2022/02/10 20:52:55;;;;;;;2.23;1.50;;;3.60;99.90;;;;;;5054106;28;20227;-62
2022/02/10 20:55:23;;;;;;;3.83;1.40;;;3.60;99.90;;;;;;5053646;28;20213;-60
2022/02/10 20:57:49;;;;;;;3.60;1.50;;;3.60;99.90;;;;;;5053699;28;20962;-64
2022/02/10 21:00:18;;;;;;;1.67;1.20;;;3.50;99.90;;;;;;5053978;28;20213;-61
2022/02/10 21:02:47;;;;;;;2.37;1.37;;;3.50;99.90;;;;;;5053613;28;20476;-64
2022/02/10 21:05:35;;;;;;;2.93;1.33;;;3.50;99.90;;;;;;5053744;28;20205;-65
2022/02/10 21:08:11;;;;;;;2.40;1.80;;;3.40;99.90;;;;;;5053217;28;20264;-56
2022/02/10 21:10:40;;;;;;;3.40;1.87;;;3.40;99.90;;;;;;5053760;28;20708;-57
2022/02/10 21:13:09;;;;;;;5.57;2.13;;;3.50;99.90;;;;;;5053846;28;20266;-57
2022/02/10 21:15:41;;;;;;;4.80;2.23;;;3.60;99.90;;;;;;5054398;28;20444;-62
2022/02/10 21:18:08;;;;;;;3.90;2.20;;;3.60;99.90;;;;;;5055157;28;20190;-60
2022/02/10 21:20:36;;;;;;;4.90;2.50;;;3.60;99.90;;;;;;5054932;28;20206;-61
2022/02/10 21:23:13;;;;;;;3.37;2.57;;;3.70;99.90;;;;;;5053405;28;20241;-61
2022/02/10 21:25:42;;;;;;;3.47;2.37;;;3.70;99.90;;;;;;5055065;28;20217;-62
2022/02/10 21:28:17;;;;;;;5.73;3.10;;;3.70;99.90;;;;;;5054409;28;20212;-58
2022/02/10 21:30:45;;;;;;;5.00;3.43;;;3.70;99.90;;;;;;5053910;28;20206;-61
2022/02/10 21:33:18;;;;;;;5.50;3.13;;;3.70;99.90;;;;;;5053516;28;20219;-57
2022/02/10 21:36:20;;;;;;;5.00;3.43;;;3.70;99.90;;;;;;5053596;28;20589;-57
2022/02/10 21:38:44;;;;;;;4.83;3.33;;;3.70;99.90;;;;;;5053413;28;20251;-61
2022/02/10 21:52:52;;;;;;;4.83;3.33;;;3.60;99.90;;;;;;4991587;28;20266;-59
2022/02/10 22:09:29;;;;;;;7.67;2.90;;;3.40;99.90;;;;;;5050623;28;20736;-60
2022/02/10 22:18:24;;;;;;;6.47;2.73;;;3.40;99.90;;;;;;4990936;28;20438;-58
2022/02/10 22:20:54;;;;;;;3.17;2.00;;;3.40;99.90;;;;;;5040149;28;20213;-57
2022/02/10 22:23:23;;;;;;;2.77;1.93;;;3.30;99.90;;;;;;5051992;28;20266;-59
2022/02/10 22:25:53;;;;;;;5.40;2.00;;;3.20;99.90;;;;;;5052703;28;20202;-55
2022/02/10 22:28:30;;;;;;;4.47;2.23;;;3.30;99.90;;;;;;5052430;28;20822;-58
2022/02/10 22:31:18;;;;;;;3.10;2.10;;;3.20;99.90;;;;;;5052202;28;20451;-59
2022/02/10 22:33:52;;;;;;;5.87;2.00;;;3.00;99.90;;;;;;5051994;28;20555;-60
2022/02/10 22:36:22;;;;;;;2.27;1.80;;;3.00;99.90;;;;;;5052096;28;20934;-61
2022/02/10 22:38:52;;;;;;;4.37;2.53;;;3.00;99.90;;;;;;5052311;28;20454;-59
2022/02/10 22:41:18;;;;;;;3.87;1.97;;;2.90;99.90;;;;;;5052334;28;20460;-59
2022/02/10 22:43:47;;;;;;;5.27;2.30;;;2.90;99.90;;;;;;5052040;28;20491;-59
2022/02/10 22:46:17;;;;;;;3.17;2.10;;;2.80;99.90;;;;;;5051625;28;20452;-57
2022/02/10 22:48:45;;;;;;;6.63;2.40;;;2.80;99.90;;;;;;5052267;28;20833;-57
2022/02/10 22:51:13;;;;;;;5.43;2.57;;;2.80;99.90;;;;;;5051973;28;20456;-57
2022/02/10 22:53:40;;;;;;;3.83;2.60;;;2.80;99.90;;;;;;5051672;28;20468;-56
2022/02/10 22:56:09;;;;;;;6.90;2.70;;;2.80;99.90;;;;;;5051552;28;20498;-58
2022/02/10 22:58:38;;;;;;;7.40;2.97;;;2.80;99.90;;;;;;5051863;28;20544;-59
2022/02/10 23:01:04;;;;;;;11.33;3.70;;;2.70;99.90;;;;;;5051919;28;20455;-58
2022/02/10 23:03:33;;;;;;;9.23;3.90;;;2.80;99.90;;;;;;5051850;28;20483;-59
2022/02/10 23:06:00;;;;;;;6.13;3.83;;;2.80;99.90;;;;;;5051597;28;20498;-59
2022/02/10 23:08:26;;;;;;;7.90;4.20;;;2.80;99.90;;;;;;5051686;28;20888;-59
2022/02/10 23:10:53;;;;;;;10.20;4.50;;;2.90;99.90;;;;;;5051734;28;21009;-60
2022/02/10 23:13:22;;;;;;;6.83;3.60;;;2.80;99.90;;;;;;5051444;28;20472;-60
2022/02/10 23:15:50;;;;;;;9.73;3.90;;;2.90;99.90;;;;;;5051918;28;20484;-60
2022/02/10 23:18:18;;;;;;;7.97;3.70;;;2.90;99.90;;;;;;5051402;28;20210;-60
2022/02/10 23:20:49;;;;;;;9.27;3.70;;;2.90;99.90;;;;;;5051811;28;20800;-58
2022/02/10 23:23:16;;;;;;;4.80;3.10;;;2.90;99.90;;;;;;5051309;28;20480;-60
2022/02/10 23:25:45;;;;;;;8.30;3.63;;;3.00;99.90;;;;;;5051552;28;20209;-59
2022/02/10 23:28:14;;;;;;;9.03;3.30;;;3.00;99.90;;;;;;5051749;28;20509;-57
2022/02/10 23:30:43;;;;;;;7.70;3.93;;;3.00;99.90;;;;;;5051667;28;20939;-61
2022/02/10 23:33:16;;;;;;;7.47;3.60;;;3.00;99.90;;;;;;5051533;28;20530;-60
2022/02/10 23:38:32;;;;;;;5.17;3.03;;;3.00;99.90;;;;;;5051398;28;20514;-60
2022/02/10 23:41:40;;;;;;;4.47;3.10;;;3.00;99.90;;;;;;5051891;28;20451;-59
2022/02/10 23:44:00;;;;;;;5.80;4.07;;;2.90;99.90;;;;;;5053737;28;20494;-61
2022/02/10 23:46:28;;;;;;;5.23;3.13;;;2.90;99.90;;;;;;5055598;28;20455;-60
2022/02/10 23:48:57;;;;;;;5.97;3.63;;;2.90;99.90;;;;;;5055251;28;20458;-59
2022/02/10 23:51:28;;;;;;;6.77;3.90;;;2.90;99.90;;;;;;5055583;28;20835;-59
2022/02/10 23:53:56;;;;;;;7.57;4.00;;;2.90;99.90;;;;;;5055293;28;20526;-60
2022/02/10 23:56:28;;;;;;;7.87;4.37;;;2.90;99.90;;;;;;5054912;28;21152;-59
2022/02/10 23:58:59;;;;;;;7.13;4.40;;;2.80;99.90;;;;;;5055313;28;20892;-60
